createdAt,value
2019-01-24T00:00:20.696Z,10.90
2019-01-24T00:02:49.113Z,10.37
2019-01-24T00:05:17.188Z,11.80
2019-01-24T00:07:45.609Z,11.13
2019-01-24T00:10:13.952Z,10.73
2019-01-24T00:12:42.041Z,11.37
2019-01-24T00:15:10.486Z,11.70
2019-01-24T00:17:38.899Z,11.07
2019-01-24T00:20:12.524Z,10.67
2019-01-24T00:22:40.942Z,10.43
2019-01-24T00:25:10.283Z,11.33
2019-01-24T00:27:39.149Z,12.13
2019-01-24T00:30:08.756Z,10.57
2019-01-24T00:32:37.340Z,13.53
2019-01-24T00:35:06.988Z,11.37
2019-01-24T00:37:35.400Z,12.10
2019-01-24T00:40:07.017Z,10.90
2019-01-24T00:42:35.147Z,12.50
2019-01-24T00:45:05.028Z,10.90
2019-01-24T00:47:33.108Z,12.87
2019-01-24T00:50:01.536Z,12.33
2019-01-24T00:52:29.645Z,11.40
2019-01-24T00:54:58.047Z,11.37
2019-01-24T00:57:26.452Z,12.33
2019-01-24T00:59:54.879Z,13.77
2019-01-24T01:02:23.278Z,12.57
2019-01-24T01:04:51.687Z,12.20
2019-01-24T01:07:20.106Z,12.83
2019-01-24T01:09:48.193Z,12.70
2019-01-24T01:12:16.597Z,12.57
2019-01-24T01:14:44.680Z,11.57
2019-01-24T01:17:13.426Z,11.83
2019-01-24T01:19:41.984Z,12.43
2019-01-24T01:22:10.380Z,10.43
2019-01-24T01:24:38.796Z,12.40
2019-01-24T01:27:07.266Z,12.70
2019-01-24T01:29:35.696Z,12.60
2019-01-24T01:32:04.280Z,11.40
2019-01-24T01:34:36.290Z,11.67
2019-01-24T01:37:02.819Z,11.57
2019-01-24T01:39:30.911Z,11.53
2019-01-24T01:41:59.648Z,10.33
2019-01-24T01:44:28.055Z,11.80
2019-01-24T01:46:56.476Z,11.67
2019-01-24T01:49:24.879Z,11.63
2019-01-24T01:51:53.308Z,10.77
2019-01-24T01:54:21.704Z,9.70
2019-01-24T01:56:50.292Z,9.30
2019-01-24T01:59:18.699Z,11.53
2019-01-24T02:01:47.121Z,11.50
2019-01-24T02:04:15.600Z,10.17
2019-01-24T02:06:44.016Z,9.60
2019-01-24T02:09:12.424Z,9.67
2019-01-24T02:11:40.839Z,10.73
2019-01-24T02:14:09.573Z,9.87
2019-01-24T02:16:37.991Z,11.30
2019-01-24T02:19:06.069Z,9.80
2019-01-24T02:21:34.484Z,11.90
2019-01-24T02:24:02.960Z,10.87
2019-01-24T02:26:31.375Z,10.77
2019-01-24T02:28:59.780Z,10.57
2019-01-24T02:31:28.194Z,10.03
2019-01-24T02:33:56.598Z,9.47
2019-01-24T02:36:25.004Z,9.87
2019-01-24T02:38:53.681Z,10.00
2019-01-24T02:41:22.093Z,10.77
2019-01-24T02:43:50.501Z,9.93
2019-01-24T02:46:18.936Z,10.10
2019-01-24T02:48:47.185Z,11.33
2019-01-24T02:51:15.584Z,10.83
2019-01-24T02:53:44.059Z,11.37
2019-01-24T02:56:12.457Z,11.07
2019-01-24T02:58:40.879Z,10.17
2019-01-24T03:01:09.281Z,11.60
2019-01-24T03:03:37.697Z,10.83
2019-01-24T03:06:06.231Z,10.23
2019-01-24T03:08:34.650Z,12.23
2019-01-24T03:11:03.064Z,10.83
2019-01-24T03:13:31.472Z,11.07
2019-01-24T03:15:59.874Z,9.83
2019-01-24T03:18:28.290Z,11.23
2019-01-24T03:20:56.699Z,11.43
2019-01-24T03:23:25.132Z,10.90
2019-01-24T03:25:53.214Z,11.10
2019-01-24T03:28:21.620Z,13.77
2019-01-24T03:30:49.693Z,10.20
2019-01-24T03:33:17.813Z,11.03
2019-01-24T03:35:45.885Z,10.50
2019-01-24T03:38:14.307Z,11.30
2019-01-24T03:40:42.716Z,10.47
2019-01-24T03:43:11.123Z,11.50
2019-01-24T03:45:39.534Z,10.50
2019-01-24T03:48:07.613Z,9.63
2019-01-24T03:50:36.017Z,10.73
2019-01-24T03:53:04.435Z,11.03
2019-01-24T03:55:32.845Z,10.67
2019-01-24T03:58:01.407Z,12.10
2019-01-24T04:00:29.809Z,13.17
2019-01-24T04:02:58.223Z,10.60
2019-01-24T04:05:26.701Z,12.10
2019-01-24T04:07:55.112Z,12.07
2019-01-24T04:10:23.687Z,10.20
2019-01-24T04:12:51.934Z,11.33
2019-01-24T04:15:24.632Z,11.60
2019-01-24T04:17:53.112Z,10.63
2019-01-24T04:20:21.771Z,12.57
2019-01-24T04:22:50.340Z,10.93
2019-01-24T04:25:18.757Z,12.10
2019-01-24T04:27:47.169Z,12.23
2019-01-24T04:30:18.129Z,13.13
2019-01-24T04:32:46.219Z,12.17
2019-01-24T04:35:19.689Z,12.67
2019-01-24T04:37:45.356Z,11.77
2019-01-24T04:40:14.588Z,12.40
2019-01-24T04:42:43.167Z,13.33
2019-01-24T04:45:13.720Z,11.43
2019-01-24T04:47:41.786Z,11.70
2019-01-24T04:50:13.114Z,11.50
2019-01-24T04:52:41.513Z,12.27
2019-01-24T04:55:12.570Z,11.93
2019-01-24T04:57:41.752Z,12.33
2019-01-24T05:00:19.204Z,11.20
2019-01-24T05:02:47.612Z,13.13
2019-01-24T05:05:16.024Z,12.30
2019-01-24T05:07:44.419Z,13.30
2019-01-24T05:10:13.672Z,12.23
2019-01-24T05:12:42.103Z,12.00
2019-01-24T05:15:11.252Z,13.43
2019-01-24T05:17:39.720Z,13.63
2019-01-24T05:20:12.912Z,12.03
2019-01-24T05:22:41.368Z,14.17
2019-01-24T05:25:12.120Z,14.37
2019-01-24T05:27:40.525Z,11.63
2019-01-24T05:30:10.219Z,14.77
2019-01-24T05:32:38.624Z,12.33
2019-01-24T05:35:08.885Z,12.13
2019-01-24T05:37:37.284Z,13.63
2019-01-24T05:40:08.205Z,13.87
2019-01-24T05:42:36.285Z,13.97
2019-01-24T05:45:07.742Z,12.37
2019-01-24T05:47:36.140Z,13.27
2019-01-24T05:50:07.776Z,14.10
2019-01-24T05:52:36.180Z,14.03
2019-01-24T05:55:06.737Z,14.50
2019-01-24T05:57:35.232Z,13.13
2019-01-24T06:00:06.762Z,14.50
2019-01-24T06:02:35.245Z,13.63
2019-01-24T06:05:05.410Z,14.73
2019-01-24T06:07:33.808Z,14.07
2019-01-24T06:10:02.224Z,11.90
2019-01-24T06:12:31.433Z,13.63
2019-01-24T06:15:00.054Z,15.03
2019-01-24T06:17:28.458Z,13.37
2019-01-24T06:19:56.856Z,13.83
2019-01-24T06:22:25.281Z,14.40
2019-01-24T06:24:53.688Z,15.23
2019-01-24T06:27:22.298Z,12.27
2019-01-24T06:29:50.708Z,14.17
2019-01-24T06:32:19.119Z,13.33
2019-01-24T06:34:47.524Z,14.67
2019-01-24T06:37:15.941Z,14.57
2019-01-24T06:39:44.349Z,15.33
2019-01-24T06:42:12.762Z,15.10
2019-01-24T06:44:41.232Z,13.70
2019-01-24T06:47:09.311Z,14.40
2019-01-24T06:49:37.769Z,14.03
2019-01-24T06:52:06.430Z,14.70
2019-01-24T06:54:34.832Z,14.73
2019-01-24T06:57:03.276Z,17.43
2019-01-24T06:59:31.676Z,13.23
2019-01-24T07:02:00.096Z,14.73
2019-01-24T07:04:28.496Z,15.07
2019-01-24T07:06:56.907Z,14.73
2019-01-24T07:09:24.983Z,14.40
2019-01-24T07:11:53.396Z,12.97
2019-01-24T07:14:21.811Z,15.53
2019-01-24T07:16:50.220Z,13.80
2019-01-24T07:19:18.620Z,14.13
2019-01-24T07:21:47.039Z,13.50
2019-01-24T07:24:15.108Z,13.47
2019-01-24T07:26:43.528Z,15.87
2019-01-24T07:29:11.606Z,13.93
2019-01-24T07:31:40.016Z,14.37
2019-01-24T07:34:08.422Z,11.60
2019-01-24T07:36:36.844Z,12.87
2019-01-24T07:39:07.509Z,13.43
2019-01-24T07:41:35.956Z,15.80
2019-01-24T07:44:04.711Z,15.60
2019-01-24T07:46:33.112Z,12.43
2019-01-24T07:49:01.527Z,12.73
2019-01-24T07:51:29.944Z,11.87
2019-01-24T07:53:58.348Z,13.10
2019-01-24T07:56:26.761Z,15.20
2019-01-24T07:58:55.177Z,14.70
2019-01-24T08:01:23.616Z,14.27
2019-01-24T08:03:52.032Z,14.10
2019-01-24T08:06:20.500Z,14.23
2019-01-24T08:08:48.907Z,13.47
2019-01-24T08:11:17.312Z,13.87
2019-01-24T08:13:45.723Z,13.37
2019-01-24T08:16:14.124Z,12.17
2019-01-24T08:18:42.549Z,13.20
2019-01-24T08:21:10.949Z,13.53
2019-01-24T08:23:39.367Z,12.40
2019-01-24T08:26:07.776Z,14.80
2019-01-24T08:28:36.184Z,14.27
2019-01-24T08:31:04.928Z,15.67
2019-01-24T08:33:33.336Z,13.63
2019-01-24T08:36:01.761Z,13.50
2019-01-24T08:38:30.181Z,12.00
2019-01-24T08:40:58.580Z,13.77
2019-01-24T08:43:26.992Z,14.37
2019-01-24T08:45:55.396Z,14.17
2019-01-24T08:48:23.809Z,13.10
2019-01-24T08:50:52.216Z,15.20
2019-01-24T08:53:20.624Z,13.07
2019-01-24T08:55:48.700Z,13.57
2019-01-24T08:58:17.116Z,14.67
2019-01-24T09:00:45.519Z,14.37
2019-01-24T09:03:14.174Z,13.23
2019-01-24T09:05:42.752Z,13.10
2019-01-24T09:08:11.324Z,13.87
2019-01-24T09:10:39.980Z,14.83
2019-01-24T09:13:08.391Z,14.57
2019-01-24T09:15:37.168Z,14.50
2019-01-24T09:18:05.528Z,15.00
2019-01-24T09:20:33.950Z,13.57
2019-01-24T09:23:02.019Z,14.50
2019-01-24T09:25:30.436Z,14.27
2019-01-24T09:27:58.516Z,13.47
2019-01-24T09:30:28.868Z,13.73
2019-01-24T09:32:57.350Z,14.10
2019-01-24T09:35:26.024Z,13.83
2019-01-24T09:37:54.092Z,13.23
2019-01-24T09:40:23.748Z,14.50
2019-01-24T09:42:52.309Z,14.43
2019-01-24T09:45:22.561Z,15.83
2019-01-24T09:47:51.894Z,15.70
2019-01-24T09:50:25.901Z,16.00
2019-01-24T09:52:54.368Z,17.10
2019-01-24T09:55:22.791Z,15.03
2019-01-24T09:57:51.517Z,15.60
2019-01-24T10:00:31.398Z,15.30
2019-01-24T10:03:00.125Z,15.27
2019-01-24T10:05:28.812Z,15.63
2019-01-24T10:07:57.452Z,15.43
2019-01-24T10:10:27.601Z,16.13
2019-01-24T10:12:56.932Z,13.50
2019-01-24T10:15:25.622Z,14.70
2019-01-24T10:17:54.084Z,13.93
2019-01-24T10:20:24.432Z,11.60
2019-01-24T10:22:53.100Z,14.57
2019-01-24T10:25:27.199Z,14.23
2019-01-24T10:27:55.873Z,12.50
2019-01-24T10:30:25.516Z,13.30
2019-01-24T10:32:54.555Z,12.13
2019-01-24T10:35:23.210Z,13.30
2019-01-24T10:37:51.609Z,13.20
2019-01-24T10:40:31.060Z,13.00
2019-01-24T10:42:59.460Z,12.17
2019-01-24T10:45:27.864Z,10.13
2019-01-24T10:47:56.515Z,12.20
2019-01-24T10:50:26.856Z,11.63
2019-01-24T10:52:55.272Z,10.07
2019-01-24T10:55:24.232Z,9.17
2019-01-24T10:57:53.868Z,10.23
2019-01-24T11:00:23.497Z,10.17
2019-01-24T11:02:51.904Z,10.17
2019-01-24T11:05:21.160Z,11.23
2019-01-24T11:07:49.564Z,8.50
2019-01-24T11:10:20.213Z,9.40
2019-01-24T11:12:49.056Z,10.20
2019-01-24T11:15:18.700Z,11.70
2019-01-24T11:17:47.117Z,8.23
2019-01-24T11:20:17.955Z,9.03
2019-01-24T11:22:46.032Z,7.77
2019-01-24T11:25:15.237Z,9.73
2019-01-24T11:27:43.705Z,9.90
2019-01-24T11:30:18.012Z,10.23
2019-01-24T11:32:46.430Z,10.80
2019-01-24T11:35:18.049Z,10.63
2019-01-24T11:37:46.205Z,10.40
2019-01-24T11:40:15.245Z,9.27
2019-01-24T11:42:43.399Z,10.90
2019-01-24T11:45:14.046Z,10.90
2019-01-24T11:47:42.447Z,9.23
2019-01-24T11:50:13.590Z,9.20
2019-01-24T11:52:42.338Z,9.60
2019-01-24T11:55:13.446Z,10.20
2019-01-24T11:57:41.856Z,9.77
2019-01-24T12:00:13.337Z,10.13
2019-01-24T12:02:41.748Z,10.23
2019-01-24T12:05:10.984Z,9.53
2019-01-24T12:07:39.400Z,9.83
2019-01-24T12:10:16.191Z,11.63
2019-01-24T12:12:44.604Z,9.57
2019-01-24T12:15:14.448Z,9.03
2019-01-24T12:17:42.855Z,9.10
2019-01-24T12:20:12.460Z,9.70
2019-01-24T12:22:40.878Z,9.40
2019-01-24T12:25:10.515Z,9.57
2019-01-24T12:27:38.923Z,9.80
2019-01-24T12:30:12.948Z,11.47
2019-01-24T12:32:41.360Z,9.67
2019-01-24T12:35:10.401Z,10.23
2019-01-24T12:37:38.818Z,10.50
2019-01-24T12:40:09.626Z,8.33
2019-01-24T12:42:38.031Z,9.40
2019-01-24T12:45:22.902Z,9.47
2019-01-24T12:47:51.318Z,9.30
2019-01-24T12:50:39.052Z,8.60
2019-01-24T12:53:08.913Z,8.43
2019-01-24T12:55:37.310Z,7.90
2019-01-24T12:58:06.029Z,8.10
2019-01-24T13:00:36.563Z,7.63
2019-01-24T13:03:05.815Z,9.00
2019-01-24T13:05:34.209Z,7.57
2019-01-24T13:08:02.616Z,8.83
2019-01-24T13:10:31.089Z,8.40
2019-01-24T13:12:59.496Z,9.47
2019-01-24T13:15:33.097Z,9.03
2019-01-24T13:18:01.188Z,7.97
2019-01-24T13:20:29.751Z,8.63
2019-01-24T13:22:58.396Z,7.47
2019-01-24T13:25:32.200Z,8.73
2019-01-24T13:28:00.618Z,9.10
2019-01-24T13:30:32.729Z,8.27
2019-01-24T13:33:01.167Z,9.43
2019-01-24T13:35:29.239Z,10.00
2019-01-24T13:37:57.336Z,9.77
2019-01-24T13:40:27.968Z,9.00
2019-01-24T13:42:57.201Z,7.80
2019-01-24T13:45:28.153Z,10.27
2019-01-24T13:47:56.552Z,9.53
2019-01-24T13:50:24.646Z,9.47
2019-01-24T13:52:52.713Z,10.03
2019-01-24T13:55:21.124Z,10.63
2019-01-24T13:57:49.524Z,9.70
2019-01-24T14:00:23.603Z,9.83
2019-01-24T14:02:55.304Z,10.63
2019-01-24T14:05:23.707Z,9.73
2019-01-24T14:07:52.181Z,10.00
2019-01-24T14:10:20.257Z,10.47
2019-01-24T14:12:48.658Z,10.33
2019-01-24T14:15:20.195Z,9.77
2019-01-24T14:17:48.604Z,10.97
2019-01-24T14:20:19.163Z,11.73
2019-01-24T14:22:47.588Z,10.43
2019-01-24T14:25:18.809Z,10.80
2019-01-24T14:27:47.489Z,11.20
2019-01-24T14:30:21.671Z,11.47
2019-01-24T14:32:50.165Z,11.13
2019-01-24T14:35:18.948Z,10.63
2019-01-24T14:37:47.020Z,10.13
2019-01-24T14:40:15.976Z,9.80
2019-01-24T14:42:44.544Z,10.20
2019-01-24T14:45:18.802Z,10.50
2019-01-24T14:47:47.200Z,12.83
2019-01-24T14:50:21.799Z,10.63
2019-01-24T14:52:50.472Z,11.93
2019-01-24T14:55:18.958Z,12.67
2019-01-24T14:57:48.379Z,12.13
2019-01-24T15:00:25.121Z,11.97
2019-01-24T15:02:53.596Z,12.60
2019-01-24T15:05:22.033Z,11.40
2019-01-24T15:07:50.436Z,11.67
2019-01-24T15:10:18.517Z,10.60
2019-01-24T15:12:46.987Z,10.43
2019-01-24T15:15:17.240Z,12.83
2019-01-24T15:17:45.651Z,19.80
2019-01-24T15:20:18.328Z,15.27
2019-01-24T15:22:47.203Z,12.33
2019-01-24T15:25:16.297Z,12.00
2019-01-24T15:27:44.972Z,12.37
2019-01-24T15:30:24.465Z,13.17
2019-01-24T15:32:52.867Z,11.60
2019-01-24T15:35:21.353Z,11.63
2019-01-24T15:37:54.333Z,12.53
2019-01-24T15:40:25.708Z,12.47
2019-01-24T15:42:54.116Z,12.37
2019-01-24T15:45:22.896Z,12.33
2019-01-24T15:47:51.366Z,12.80
2019-01-24T15:50:21.919Z,12.97
2019-01-24T15:52:50.559Z,11.83
2019-01-24T15:55:18.967Z,11.70
2019-01-24T15:57:47.656Z,11.80
2019-01-24T16:00:18.903Z,12.07
2019-01-24T16:02:47.315Z,13.00
2019-01-24T16:05:15.707Z,11.63
2019-01-24T16:07:44.264Z,12.63
2019-01-24T16:10:15.308Z,13.67
2019-01-24T16:12:43.728Z,11.87
2019-01-24T16:15:17.712Z,12.13
2019-01-24T16:17:45.803Z,13.13
2019-01-24T16:20:17.116Z,11.43
2019-01-24T16:22:45.541Z,13.37
2019-01-24T16:25:16.385Z,11.83
2019-01-24T16:27:44.872Z,13.40
2019-01-24T16:30:16.352Z,17.27
2019-01-24T16:32:44.765Z,13.57
2019-01-24T16:35:14.814Z,11.53
2019-01-24T16:37:43.221Z,14.57
2019-01-24T16:40:16.837Z,11.83
2019-01-24T16:42:45.243Z,16.17
2019-01-24T16:45:18.920Z,18.23
2019-01-24T16:47:47.424Z,12.33
2019-01-24T16:50:18.573Z,12.90
2019-01-24T16:52:47.155Z,13.00
2019-01-24T16:55:17.403Z,12.63
2019-01-24T16:57:47.223Z,11.30
2019-01-24T17:00:21.644Z,12.40
2019-01-24T17:02:50.180Z,11.20
2019-01-24T17:05:18.951Z,10.27
2019-01-24T17:07:47.367Z,11.40
2019-01-24T17:10:29.308Z,12.17
2019-01-24T17:12:57.762Z,13.13
2019-01-24T17:15:26.900Z,12.70
2019-01-24T17:17:55.490Z,14.50
2019-01-24T17:20:26.539Z,15.60
2019-01-24T17:22:54.970Z,15.53
2019-01-24T17:25:25.124Z,15.97
2019-01-24T17:27:53.209Z,15.40
2019-01-24T17:30:23.848Z,17.10
2019-01-24T17:32:52.604Z,15.87
2019-01-24T17:35:21.852Z,15.57
2019-01-24T17:37:50.267Z,16.63
2019-01-24T17:40:27.472Z,17.17
2019-01-24T17:42:55.972Z,16.57
2019-01-24T17:45:24.455Z,14.97
2019-01-24T17:47:52.549Z,16.23
2019-01-24T17:50:21.031Z,16.63
2019-01-24T17:52:49.451Z,15.27
2019-01-24T17:55:26.873Z,16.07
2019-01-24T17:57:55.287Z,15.30
2019-01-24T18:00:26.199Z,14.87
2019-01-24T18:02:54.712Z,14.37
2019-01-24T18:05:23.303Z,16.03
2019-01-24T18:07:51.859Z,15.77
2019-01-24T18:10:28.820Z,16.20
2019-01-24T18:12:57.245Z,16.40
2019-01-24T18:15:31.538Z,18.23
2019-01-24T18:18:00.389Z,17.90
2019-01-24T18:20:31.333Z,17.37
2019-01-24T18:23:00.034Z,17.17
2019-01-24T18:25:28.504Z,16.53
2019-01-24T18:27:56.921Z,17.57
2019-01-24T18:30:27.929Z,19.10
2019-01-24T18:32:56.579Z,17.03
2019-01-24T18:35:25.316Z,18.53
2019-01-24T18:37:53.738Z,17.77
2019-01-24T18:40:23.345Z,18.87
2019-01-24T18:42:52.600Z,18.17
2019-01-24T18:45:24.540Z,18.80
2019-01-24T18:47:52.960Z,21.07
2019-01-24T18:50:22.299Z,19.90
2019-01-24T18:52:50.940Z,19.57
2019-01-24T18:55:19.365Z,18.97
2019-01-24T18:57:48.039Z,20.07
2019-01-24T19:00:18.860Z,18.67
2019-01-24T19:02:47.335Z,18.00
2019-01-24T19:05:15.988Z,19.43
2019-01-24T19:07:44.400Z,18.70
2019-01-24T19:10:32.240Z,20.10
2019-01-24T19:13:00.649Z,17.80
2019-01-24T19:15:29.065Z,17.23
2019-01-24T19:17:57.503Z,17.47
2019-01-24T19:20:25.952Z,17.80
2019-01-24T19:22:54.356Z,17.40
2019-01-24T19:25:23.536Z,17.03
2019-01-24T19:27:51.940Z,15.97
2019-01-24T19:30:28.646Z,16.60
2019-01-24T19:32:57.224Z,16.30
2019-01-24T19:35:25.716Z,15.47
2019-01-24T19:37:53.788Z,15.17
2019-01-24T19:40:26.285Z,15.87
2019-01-24T19:42:54.687Z,15.83
2019-01-24T19:45:24.308Z,15.73
2019-01-24T19:47:52.945Z,15.67
2019-01-24T19:50:26.417Z,14.00
2019-01-24T19:52:54.978Z,12.33
2019-01-24T19:55:23.048Z,13.30
2019-01-24T19:57:51.592Z,13.90
2019-01-24T20:00:28.181Z,12.20
2019-01-24T20:02:56.916Z,11.93
2019-01-24T20:05:25.277Z,12.60
2019-01-24T20:07:53.748Z,12.60
2019-01-24T20:10:23.364Z,13.77
2019-01-24T20:12:51.763Z,12.43
2019-01-24T20:15:22.520Z,12.47
2019-01-24T20:17:51.240Z,13.37
2019-01-24T20:20:20.024Z,13.40
2019-01-24T20:22:49.166Z,14.40
2019-01-24T20:25:20.012Z,14.63
2019-01-24T20:27:49.656Z,13.10
2019-01-24T20:30:26.139Z,14.00
2019-01-24T20:32:54.818Z,14.83
2019-01-24T20:35:27.084Z,14.13
2019-01-24T20:37:55.484Z,15.57
2019-01-24T20:40:24.136Z,14.57
2019-01-24T20:42:52.784Z,15.33
2019-01-24T20:45:21.210Z,14.70
2019-01-24T20:47:49.613Z,14.97
2019-01-24T20:50:18.269Z,16.37
2019-01-24T20:52:46.682Z,15.33
2019-01-24T20:55:17.096Z,17.50
2019-01-24T20:57:45.561Z,16.83
2019-01-24T21:00:22.828Z,17.70
2019-01-24T21:02:52.072Z,18.60
2019-01-24T21:05:24.876Z,18.43
2019-01-24T21:07:53.348Z,18.47
2019-01-24T21:10:22.616Z,17.37
2019-01-24T21:12:51.019Z,16.97
2019-01-24T21:15:20.740Z,16.27
2019-01-24T21:17:49.692Z,14.93
2019-01-24T21:20:20.876Z,18.30
2019-01-24T21:22:49.453Z,17.83
2019-01-24T21:25:20.292Z,19.57
2019-01-24T21:27:48.699Z,19.47
2019-01-24T21:30:18.148Z,18.17
2019-01-24T21:32:46.552Z,18.53
2019-01-24T21:35:16.676Z,17.90
2019-01-24T21:37:45.146Z,18.90
2019-01-24T21:40:18.938Z,18.77
2019-01-24T21:42:47.341Z,18.57
2019-01-24T21:45:23.860Z,16.93
2019-01-24T21:47:52.734Z,15.53
2019-01-24T21:50:23.914Z,14.00
2019-01-24T21:52:52.591Z,13.20
2019-01-24T21:55:21.353Z,12.17
2019-01-24T21:57:50.394Z,11.23
2019-01-24T22:00:22.592Z,11.93
2019-01-24T22:02:51.031Z,12.20
2019-01-24T22:05:19.672Z,12.93
2019-01-24T22:07:48.530Z,13.23
2019-01-24T22:10:22.223Z,12.40
2019-01-24T22:12:50.637Z,12.53
2019-01-24T22:15:19.979Z,13.07
2019-01-24T22:17:48.406Z,13.87
2019-01-24T22:20:17.925Z,12.70
2019-01-24T22:22:46.505Z,13.47
2019-01-24T22:25:17.512Z,13.00
2019-01-24T22:27:46.672Z,12.63
2019-01-24T22:30:31.821Z,12.87
2019-01-24T22:33:00.220Z,10.60
2019-01-24T22:35:28.702Z,11.17
2019-01-24T22:37:56.884Z,13.07
2019-01-24T22:40:25.360Z,11.13
2019-01-24T22:42:53.775Z,11.30
2019-01-24T22:45:24.335Z,11.40
2019-01-24T22:47:52.820Z,10.97
2019-01-24T22:50:21.223Z,10.70
2019-01-24T22:52:49.639Z,11.60
2019-01-24T22:55:17.711Z,12.37
2019-01-24T22:57:48.233Z,12.50
2019-01-24T23:00:26.753Z,10.47
2019-01-24T23:02:55.169Z,11.53
2019-01-24T23:05:23.582Z,12.07
2019-01-24T23:07:51.996Z,10.97
2019-01-24T23:10:20.545Z,13.13
2019-01-24T23:12:48.964Z,11.83
2019-01-24T23:15:17.430Z,10.63
2019-01-24T23:17:45.845Z,10.90
2019-01-24T23:20:14.088Z,12.77
2019-01-24T23:22:42.504Z,12.33
2019-01-24T23:25:10.973Z,13.47
2019-01-24T23:27:39.383Z,12.10
2019-01-24T23:30:11.633Z,12.00
2019-01-24T23:32:39.719Z,11.73
2019-01-24T23:35:08.261Z,11.67
2019-01-24T23:37:36.691Z,11.73
2019-01-24T23:40:09.324Z,13.20
2019-01-24T23:42:37.735Z,13.80
2019-01-24T23:45:09.348Z,12.07
2019-01-24T23:47:37.764Z,12.37
2019-01-24T23:50:08.012Z,11.67
2019-01-24T23:52:36.493Z,11.37
2019-01-24T23:55:07.888Z,13.57
2019-01-24T23:57:36.292Z,12.40
